• Join FlightAware (Why Join?)
  • Login
  • US Flag 
06:02AM EDT


 

Airport Tracker/Info


-or-


 

Live Flight TrackerFlight Track Log ✈ SKW6332 ✈ 18-May-2012 ✈ KPDX - KEUG

Flight Track Log - Related Links

Times and Time Zones

All times are in EDT time to prevent confusion due to time zone crossing. See the SKW6332 flight status page for this flight to view local times or setup timezone preferences in your user account.

Time Position Orientation Groundspeed Altitude Reporting Facility
EDT Latitude Longitude Course Direction KTS MPH feet Rate Location/Type
06:05PM 45.5903 -122.5861 228° Southwest 128 147 500  Level Seattle Center
06:10PM 45.4825 -122.7561 187° South 193 222 7,800 1,680 Climbing Seattle Center
06:11PM 45.4269 -122.7653 185° South 199 229 9,700 1,800 Climbing Seattle Center
06:12PM 45.3706 -122.7725 187° South 202 232 11,500 1,680 Climbing Seattle Center
06:13PM 45.3147 -122.7817 188° South 202 232 13,200 1,680 Climbing Seattle Center
06:14PM 45.2467 -122.7947 192° South 204 235 15,000 840 Climbing Seattle Center
06:15PM 45.1814 -122.8144 197° South 237 273 15,000  Level Seattle Center
06:16PM 45.1153 -122.8422 196° South 249 287 15,000  Level Seattle Center
06:17PM 45.0489 -122.8694 196° South 248 285 15,000  Level Seattle Center
06:18PM 44.9819 -122.8964 196° South 249 287 15,000 -420 Level Seattle Center
06:19PM 44.9147 -122.9239 197° South 250 288 14,200 -1,200 Descending Seattle Center
06:20PM 44.8453 -122.9539 194° South 256 295 12,600 -1,560 Descending Seattle Center
06:21PM 44.7747 -122.9783 193° South 259 298 11,100 -1,320 Descending Seattle Center
06:22PM 44.7058 -123.0008 194° South 256 295 9,900 -1,200 Descending Seattle Center
06:23PM 44.6394 -123.0236 196° South 250 288 8,700 -1,320 Descending Seattle Center
06:24PM 44.5614 -123.0558 216° Southwest 245 282 7,200 -1,320 Descending Seattle Center
06:25PM 44.5083 -123.1089 215° Southwest 241 277 6,000 -1,200 Descending Seattle Center
06:26PM 44.4556 -123.1600 215° Southwest 233 268 4,800 -960 Descending Seattle Center
06:27PM 44.4092 -123.2061 188° South 215 247 4,100 -420 Descending Seattle Center
06:28PM 44.3608 -123.2153 183° South 196 226 4,000 -180 Descending Seattle Center
06:29PM 44.3022 -123.2200 180° South 193 222 3,800 -660 Descending Seattle Center
06:30PM 44.2453 -123.2206 180° South 199 229 2,700 -1,140 Descending Seattle Center